Time;durP1;ratioP1;P1;durP2;ratioP2;P2;SDS_P1;SDS_P2;PMS_P1;PMS_P2;Temp;Humidity;BMP_temperature;BMP_pressure;BME280_temperature;BME280_humidity;BME280_pressure;Samples;Min_cycle;Max_cycle;Signal;HPM_P1;HPM_P2
2022/07/01 00:02:33;;;;;;;19.42;17.52;;;;;;;20.33;80.00;98530.80;2211280;81;20956;-82
2022/07/01 00:05:33;;;;;;;20.72;18.12;;;;;;;20.27;80.04;98531.86;2211221;81;20925;-82
2022/07/01 00:08:34;;;;;;;21.05;18.20;;;;;;;20.20;80.41;98529.00;2211368;81;21000;-82
2022/07/01 00:11:37;;;;;;;23.38;18.55;;;;;;;20.17;80.62;98524.25;2211839;81;21012;-82
2022/07/01 00:14:37;;;;;;;20.95;18.25;;;;;;;20.14;80.75;98525.67;2211082;81;21324;-82
2022/07/01 00:17:39;;;;;;;20.75;18.00;;;;;;;20.12;80.88;98516.45;2211206;81;20952;-82
2022/07/01 00:20:39;;;;;;;57.17;19.00;;;;;;;20.13;80.79;98519.97;2211853;81;20956;-82
2022/07/01 00:23:39;;;;;;;19.42;17.42;;;;;;;20.16;81.06;98515.44;2211982;81;20945;-82
2022/07/01 00:26:39;;;;;;;18.52;16.67;;;;;;;20.19;80.80;98511.36;2212181;81;20980;-82
2022/07/01 00:29:39;;;;;;;18.85;16.65;;;;;;;20.22;80.84;98505.96;2212651;81;21000;-82
2022/07/01 00:32:40;;;;;;;21.27;17.15;;;;;;;20.24;80.60;98500.16;2211788;81;20892;-82
2022/07/01 00:35:40;;;;;;;24.23;21.70;;;;;;;20.24;80.69;98498.83;2211912;81;21328;-83
2022/07/01 00:38:41;;;;;;;23.05;19.85;;;;;;;20.22;80.78;98488.73;2211580;81;20941;-82
2022/07/01 00:41:41;;;;;;;20.05;17.92;;;;;;;20.25;80.54;98491.28;2211858;81;20995;-82
2022/07/01 00:44:41;;;;;;;21.10;17.52;;;;;;;20.32;80.41;98494.61;2212144;81;21318;-81
2022/07/01 00:47:42;;;;;;;20.27;17.95;;;;;;;20.31;80.48;98491.09;2212379;81;20964;-81
2022/07/01 00:50:42;;;;;;;22.90;16.62;;;;;;;20.28;80.52;98491.19;2212735;81;20944;-80
2022/07/01 00:53:43;;;;;;;17.62;16.02;;;;;;;20.30;80.62;98492.00;2212791;81;20948;-81
2022/07/01 00:56:43;;;;;;;60.52;19.75;;;;;;;20.39;80.11;98500.56;2212460;81;20968;-81
2022/07/01 00:59:43;;;;;;;21.97;15.53;;;;;;;20.42;79.82;98503.16;2212025;81;20950;-82
2022/07/01 01:02:44;;;;;;;25.57;14.73;;;;;;;20.50;79.53;98507.73;2212580;81;20956;-80
2022/07/01 01:05:44;;;;;;;18.10;14.58;;;;;;;20.58;79.30;98511.00;2212186;81;20924;-81
2022/07/01 01:08:45;;;;;;;16.10;14.55;;;;;;;20.63;79.01;98510.38;2211891;81;20952;-80
2022/07/01 01:11:45;;;;;;;44.20;17.80;;;;;;;20.66;78.72;98503.66;2211937;81;21046;-80
2022/07/01 01:14:46;;;;;;;166.07;26.45;;;;;;;20.72;78.49;98504.77;2212228;81;21339;-81
2022/07/01 01:17:46;;;;;;;74.10;18.12;;;;;;;20.84;78.18;98494.23;2211383;81;21386;-80
2022/07/01 01:20:46;;;;;;;14.15;12.80;;;;;;;20.95;77.78;98488.95;2211636;81;20934;-80
2022/07/01 01:23:47;;;;;;;14.87;12.88;;;;;;;21.06;77.25;98485.05;2210897;81;20980;-81
2022/07/01 01:26:47;;;;;;;13.83;12.43;;;;;;;21.14;76.83;98484.30;2211132;81;21052;-81
2022/07/01 01:29:47;;;;;;;13.30;11.90;;;;;;;21.22;76.40;98480.91;2211529;81;20922;-81
2022/07/01 01:32:49;;;;;;;14.35;12.20;;;;;;;21.31;75.99;98477.95;2211475;81;21355;-80
2022/07/01 01:35:48;;;;;;;21.80;12.63;;;;;;;21.38;75.62;98486.09;2210950;81;20948;-79
2022/07/01 01:38:49;;;;;;;13.50;12.15;;;;;;;21.43;75.22;98480.14;2211341;81;20944;-81
2022/07/01 01:41:49;;;;;;;13.45;11.97;;;;;;;21.49;74.93;98481.23;2211322;81;21023;-81
2022/07/01 01:44:50;;;;;;;18.40;12.00;;;;;;;21.54;74.65;98487.23;2211338;81;21448;-80
2022/07/01 01:47:50;;;;;;;34.30;13.18;;;;;;;21.60;74.34;98492.78;2211239;81;20991;-81
2022/07/01 01:50:50;;;;;;;17.65;11.43;;;;;;;21.65;74.10;98487.29;2211283;81;20948;-82
2022/07/01 01:53:51;;;;;;;113.03;21.97;;;;;;;21.68;73.78;98487.20;2210958;81;21331;-82
2022/07/01 01:56:51;;;;;;;19.27;11.78;;;;;;;21.70;73.59;98491.53;2211620;81;20956;-82
2022/07/01 01:59:52;;;;;;;14.07;11.03;;;;;;;21.74;73.34;98497.13;2211876;81;20991;-82
2022/07/01 02:02:52;;;;;;;13.18;11.93;;;;;;;21.76;73.14;98498.40;2211665;81;20924;-82
2022/07/01 02:05:52;;;;;;;15.13;11.40;;;;;;;21.79;72.98;98503.59;2211359;81;21419;-83
2022/07/01 02:08:55;;;;;;;13.18;11.65;;;;;;;21.78;72.89;98502.73;2207821;81;20956;-81
2022/07/01 02:11:55;;;;;;;17.77;11.53;;;;;;;21.77;72.75;98502.33;2211544;80;20999;-81
2022/07/01 02:14:56;;;;;;;12.33;10.80;;;;;;;21.79;72.74;98500.94;2211811;81;20960;-82
2022/07/01 02:17:57;;;;;;;11.93;10.72;;;;;;;21.78;72.60;98501.86;2211937;81;20968;-83
2022/07/01 02:20:58;;;;;;;22.20;11.05;;;;;;;21.78;72.55;98501.41;2178493;82;21043;-84
2022/07/01 02:23:59;;;;;;;21.87;11.53;;;;;;;21.82;72.50;98506.13;2205779;81;20960;-81
2022/07/01 02:26:59;;;;;;;13.10;11.60;;;;;;;21.83;72.43;98505.20;2211234;81;21379;-83
2022/07/01 02:30:00;;;;;;;30.32;13.18;;;;;;;21.85;72.30;98507.34;2210552;81;21044;-82
2022/07/01 02:33:00;;;;;;;11.93;10.72;;;;;;;21.88;72.20;98504.56;2211002;81;20948;-82
2022/07/01 02:36:01;;;;;;;13.13;11.65;;;;;;;21.92;72.04;98512.82;2211848;81;21300;-83
2022/07/01 02:39:01;;;;;;;52.30;15.23;;;;;;;21.93;71.94;98507.91;2211344;81;21043;-83
2022/07/01 02:45:20;;;;;;;13.10;11.88;;;;;;;21.98;71.74;98509.05;2211237;81;20964;-83
2022/07/01 02:48:21;;;;;;;107.07;19.60;;;;;;;22.02;71.61;98522.16;2211451;81;21719;-84
2022/07/01 02:51:21;;;;;;;12.43;11.12;;;;;;;22.07;71.49;98514.91;2211644;81;20948;-83
2022/07/01 02:54:22;;;;;;;13.48;11.60;;;;;;;22.10;71.35;98520.09;2209303;81;20991;-84
2022/07/01 02:57:22;;;;;;;14.53;11.25;;;;;;;22.12;71.23;98515.59;2212324;81;21228;-83
2022/07/01 03:00:22;;;;;;;14.78;10.40;;;;;;;22.16;71.14;98517.66;2212612;81;20952;-83
2022/07/01 03:03:23;;;;;;;13.28;10.82;;;;;;;22.16;71.06;98517.19;2211825;81;20928;-84
2022/07/01 03:06:23;;;;;;;12.95;11.40;;;;;;;22.19;70.99;98514.41;2212078;81;20956;-83
2022/07/01 03:09:24;;;;;;;13.90;10.70;;;;;;;22.23;70.83;98525.33;2212162;81;20976;-84
2022/07/01 03:12:28;;;;;;;14.68;11.70;;;;;;;22.27;70.85;98525.20;2211798;81;21028;-82
2022/07/01 03:15:28;;;;;;;16.97;10.98;;;;;;;22.29;70.78;98529.53;2211960;81;21295;-83
2022/07/01 03:18:28;;;;;;;14.83;11.50;;;;;;;22.33;70.63;98530.27;2212026;81;20952;-83
2022/07/01 03:21:28;;;;;;;18.52;10.90;;;;;;;22.39;70.56;98535.34;2204592;81;20964;-83
2022/07/01 03:24:30;;;;;;;214.32;25.12;;;;;;;22.46;70.40;98542.14;2182033;81;20988;-81
2022/07/01 03:27:33;;;;;;;21.80;12.45;;;;;;;22.49;70.38;98534.03;2210729;81;20991;-83
2022/07/01 03:30:34;;;;;;;15.55;11.53;;;;;;;22.53;70.31;98531.19;2189378;81;20988;-84
2022/07/01 03:33:34;;;;;;;19.82;11.63;;;;;;;22.61;70.08;98527.38;2210976;81;21392;-84
2022/07/01 03:36:38;;;;;;;12.13;10.93;;;;;;;22.69;69.95;98530.58;2211473;81;21015;-85
2022/07/01 03:39:36;;;;;;;16.73;11.50;;;;;;;22.75;69.77;98531.66;2188991;81;21364;-85
2022/07/01 03:42:37;;;;;;;13.53;11.15;;;;;;;22.81;69.69;98524.77;2210908;81;21007;-83
2022/07/01 03:45:39;;;;;;;14.93;11.28;;;;;;;22.87;69.47;98529.36;2211096;81;20960;-83
2022/07/01 03:48:38;;;;;;;15.72;11.80;;;;;;;22.93;69.36;98524.71;2210411;81;20992;-83
2022/07/01 03:51:38;;;;;;;46.42;13.75;;;;;;;23.01;69.29;98534.09;2209383;81;20932;-83
2022/07/01 03:54:40;;;;;;;16.42;11.78;;;;;;;23.11;68.98;98535.89;2210193;81;20940;-82
2022/07/01 03:57:39;;;;;;;12.13;10.53;;;;;;;23.17;68.91;98536.48;2210488;81;20960;-83
2022/07/01 04:00:39;;;;;;;11.97;10.50;;;;;;;23.25;68.67;98534.81;2209892;81;20959;-83
2022/07/01 04:03:40;;;;;;;14.40;10.78;;;;;;;23.35;68.40;98537.47;2210119;81;20933;-83
2022/07/01 04:06:43;;;;;;;17.90;13.80;;;;;;;23.46;68.31;98533.02;2210607;81;20979;-83
2022/07/01 04:09:43;;;;;;;11.90;10.63;;;;;;;23.58;67.92;98536.50;2209509;81;20912;-83
2022/07/01 04:12:44;;;;;;;13.88;10.82;;;;;;;23.75;67.61;98533.06;2210043;81;21018;-83
2022/07/01 04:15:44;;;;;;;18.92;11.68;;;;;;;23.92;67.10;98533.13;2209316;81;20909;-81
2022/07/01 04:18:45;;;;;;;16.85;10.48;;;;;;;24.09;66.72;98537.20;2209163;81;21003;-83
2022/07/01 04:25:04;;;;;;;11.68;10.55;;;;;;;24.41;65.80;98530.37;2209113;81;20995;-85
2022/07/01 04:28:05;;;;;;;17.17;10.53;;;;;;;24.62;64.90;98528.91;2209742;81;21030;-82
2022/07/01 04:31:05;;;;;;;16.97;11.40;;;;;;;24.81;64.96;98532.85;2209079;80;20995;-82
2022/07/01 04:34:05;;;;;;;11.88;10.68;;;;;;;24.99;64.45;98526.14;2210118;81;20956;-81
2022/07/01 04:37:06;;;;;;;14.93;10.90;;;;;;;25.17;64.10;98528.83;2210053;81;20932;-83
2022/07/01 04:40:06;;;;;;;15.88;10.98;;;;;;;25.33;62.81;98528.41;2209627;81;20968;-82
2022/07/01 04:43:08;;;;;;;19.80;11.48;;;;;;;25.49;63.17;98523.11;2187647;81;21380;-81
2022/07/01 04:46:09;;;;;;;16.50;10.63;;;;;;;25.60;62.62;98524.73;2209108;81;21012;-81
2022/07/01 04:49:09;;;;;;;15.88;10.60;;;;;;;25.80;62.47;98533.90;2209553;81;20987;-80
2022/07/01 04:52:10;;;;;;;11.93;10.75;;;;;;;25.95;61.83;98524.17;2208851;81;21297;-80
2022/07/01 04:55:10;;;;;;;11.50;10.40;;;;;;;26.13;61.64;98523.65;2208618;81;20932;-80
2022/07/01 04:58:10;;;;;;;29.63;12.15;;;;;;;26.31;60.96;98523.94;2208062;81;20979;-80
2022/07/01 05:01:11;;;;;;;12.37;10.20;;;;;;;26.45;60.62;98531.21;2208645;81;20960;-80
2022/07/01 05:04:11;;;;;;;16.25;10.90;;;;;;;26.61;60.33;98529.37;2208445;81;21300;-79
2022/07/01 05:07:27;;;;;;;10.58;9.33;;;;;;;26.77;59.53;98525.32;2207925;81;20988;-79
2022/07/01 05:10:12;;;;;;;13.60;9.95;;;;;;;26.88;59.04;98521.56;2208232;81;20967;-81
2022/07/01 05:13:12;;;;;;;24.60;10.45;;;;;;;27.05;57.98;98527.28;2208110;81;20999;-81
2022/07/01 05:16:13;;;;;;;12.73;9.78;;;;;;;27.14;57.89;98534.30;2207960;81;20936;-81
2022/07/01 05:22:32;;;;;;;11.40;10.03;;;;;;;27.42;57.44;98527.25;2207639;81;20916;-80
2022/07/01 05:25:33;;;;;;;13.53;10.18;;;;;;;27.56;56.97;98531.28;2207130;81;21006;-79
2022/07/01 05:28:33;;;;;;;10.98;9.90;;;;;;;27.68;56.77;98529.20;2208124;81;20948;-80
2022/07/01 05:31:34;;;;;;;14.53;10.80;;;;;;;27.83;56.23;98532.30;2207911;81;20976;-80
2022/07/01 05:34:35;;;;;;;13.15;10.50;;;;;;;27.86;56.02;98532.09;2208615;81;20968;-79
2022/07/01 05:37:35;;;;;;;70.62;16.60;;;;;;;27.95;56.07;98531.13;2208942;81;21424;-80
2022/07/01 05:40:35;;;;;;;59.77;14.00;;;;;;;28.08;55.82;98532.06;2208975;81;20925;-84
2022/07/01 05:43:36;;;;;;;21.60;11.25;;;;;;;28.11;55.47;98532.73;2208364;80;21008;-81
2022/07/01 05:46:36;;;;;;;15.28;10.35;;;;;;;28.20;56.00;98531.28;2209259;80;20932;-79
2022/07/01 05:49:36;;;;;;;13.48;10.48;;;;;;;28.32;55.23;98527.83;2208764;81;21355;-80
2022/07/01 05:52:37;;;;;;;11.20;10.05;;;;;;;28.48;55.12;98525.86;2208720;81;20949;-81
2022/07/01 05:55:37;;;;;;;11.25;9.93;;;;;;;28.64;54.93;98527.08;2208623;81;20980;-80
2022/07/01 05:58:38;;;;;;;13.40;10.28;;;;;;;28.78;53.64;98518.95;2208244;81;21000;-84
2022/07/01 06:01:38;;;;;;;13.98;10.32;;;;;;;28.76;54.28;98517.34;2208640;81;20948;-81
2022/07/01 06:04:39;;;;;;;16.97;11.28;;;;;;;28.83;54.54;98519.98;2209120;81;21007;-81
2022/07/01 06:07:40;;;;;;;11.35;10.15;;;;;;;28.99;54.60;98515.33;2208728;81;21672;-81
2022/07/01 06:10:40;;;;;;;113.40;18.02;;;;;;;29.17;53.95;98510.03;2208532;81;20975;-77
2022/07/01 06:13:40;;;;;;;29.67;10.95;;;;;;;29.24;53.30;98509.12;2208304;81;21023;-81
2022/07/01 06:16:40;;;;;;;18.55;10.23;;;;;;;29.34;53.67;98507.99;2209001;81;20955;-80
2022/07/01 06:19:41;;;;;;;14.93;10.10;;;;;;;29.63;53.21;98510.04;2209463;81;20933;-81
2022/07/01 06:22:41;;;;;;;13.18;9.73;;;;;;;29.87;52.33;98516.35;2208628;81;20977;-80
2022/07/01 06:25:42;;;;;;;12.73;10.00;;;;;;;29.91;52.10;98519.68;2208432;81;20968;-80
2022/07/01 06:28:42;;;;;;;83.15;15.78;;;;;;;30.00;51.96;98525.74;2209048;80;20957;-79
2022/07/01 06:31:42;;;;;;;10.95;9.75;;;;;;;30.13;51.46;98525.26;2208909;81;21696;-80
2022/07/01 06:34:43;;;;;;;13.68;10.40;;;;;;;30.23;50.69;98524.09;2208891;81;20995;-80
2022/07/01 06:37:43;;;;;;;11.73;8.75;;;;;;;30.35;49.72;98528.13;2209808;81;20940;-79
2022/07/01 06:41:26;;;;;;;12.53;9.05;;;;;;;30.49;49.97;98525.76;2209109;81;20999;-82
2022/07/01 06:43:44;;;;;;;10.13;9.30;;;;;;;30.66;48.34;98517.79;2209745;81;20983;-79
2022/07/01 06:46:45;;;;;;;10.82;9.68;;;;;;;30.73;49.06;98529.83;2210156;81;20936;-81
2022/07/01 06:49:45;;;;;;;15.05;9.60;;;;;;;30.88;49.17;98534.05;2208841;81;20932;-79
2022/07/01 06:52:45;;;;;;;26.55;11.15;;;;;;;31.09;48.22;98529.34;2209162;81;20967;-81
2022/07/01 06:55:46;;;;;;;11.65;8.58;;;;;;;31.24;48.23;98530.92;2208316;81;21414;-81
2022/07/01 06:58:46;;;;;;;10.32;9.30;;;;;;;31.33;47.73;98527.02;2207863;81;21705;-81
2022/07/01 07:01:47;;;;;;;10.50;8.98;;;;;;;31.43;47.57;98527.16;2208292;81;20940;-81
2022/07/01 07:04:47;;;;;;;15.38;8.48;;;;;;;31.56;46.48;98521.66;2208382;81;20940;-80
2022/07/01 07:07:47;;;;;;;11.75;8.73;;;;;;;31.72;47.42;98519.98;2207938;81;20956;-81
2022/07/01 07:10:48;;;;;;;11.15;8.53;;;;;;;31.89;46.32;98520.84;2208574;81;20956;-81
2022/07/01 07:13:48;;;;;;;16.82;9.45;;;;;;;32.09;46.20;98514.72;2208231;81;21415;-81
2022/07/01 07:16:51;;;;;;;9.70;8.60;;;;;;;32.30;45.47;98514.84;2209674;81;21002;-82
2022/07/01 07:19:49;;;;;;;55.78;12.35;;;;;;;32.54;45.14;98513.30;2209277;81;21218;-80
2022/07/01 07:22:49;;;;;;;17.15;8.40;;;;;;;32.65;44.42;98514.61;2209079;81;20966;-80
2022/07/01 07:25:50;;;;;;;9.15;7.65;;;;;;;32.76;44.63;98517.27;2209272;81;21325;-80
2022/07/01 07:28:50;;;;;;;10.98;8.05;;;;;;;32.96;43.55;98512.94;2209516;81;20983;-81
2022/07/01 07:31:54;;;;;;;9.05;7.28;;;;;;;33.08;42.06;98509.69;2208887;81;20979;-81
2022/07/01 07:34:54;;;;;;;9.98;7.70;;;;;;;32.95;41.43;98507.17;2208051;81;20928;-81
2022/07/01 07:37:55;;;;;;;9.33;7.40;;;;;;;32.88;41.57;98518.97;2208316;81;20936;-77
2022/07/01 07:40:55;;;;;;;11.65;7.75;;;;;;;33.09;42.08;98516.80;2208832;81;20979;-81
2022/07/01 07:43:55;;;;;;;17.20;7.67;;;;;;;33.35;41.58;98517.30;2208489;81;20952;-81
2022/07/01 07:46:59;;;;;;;8.85;6.87;;;;;;;33.55;41.14;98525.39;2208859;81;21353;-80
2022/07/01 07:49:56;;;;;;;11.73;7.50;;;;;;;33.67;40.22;98526.66;2208882;81;21388;-81
2022/07/01 07:56:13;;;;;;;15.72;7.78;;;;;;;34.12;38.80;98527.20;2346086;76;22876;-80
2022/07/01 07:59:14;;;;;;;88.20;15.03;;;;;;;34.17;39.09;98527.64;2315757;77;20998;-82
2022/07/01 08:02:14;;;;;;;12.58;7.37;;;;;;;34.25;38.08;98529.16;2316162;77;20950;-79
2022/07/01 08:05:14;;;;;;;13.43;7.28;;;;;;;34.30;38.47;98528.75;2316079;77;21307;-80
2022/07/01 08:08:15;;;;;;;55.55;9.98;;;;;;;34.37;37.40;98521.31;2315664;77;20974;-80
2022/07/01 08:11:16;;;;;;;9.80;6.78;;;;;;;34.55;37.17;98526.91;2315887;77;20908;-80
2022/07/01 08:14:17;;;;;;;14.65;7.40;;;;;;;34.71;36.62;98519.11;2315789;77;21412;-81
2022/07/01 08:17:18;;;;;;;12.40;6.42;;;;;;;34.94;36.29;98529.70;2315777;77;20947;-81
2022/07/01 08:20:19;;;;;;;95.60;12.03;;;;;;;35.02;35.37;98532.56;2315512;77;21054;-81
2022/07/01 08:23:19;;;;;;;8.73;6.47;;;;;;;34.97;35.96;98522.14;2314895;77;20939;-82
2022/07/01 08:26:20;;;;;;;6.95;6.35;;;;;;;35.17;34.83;98527.05;2315293;77;20973;-80
2022/07/01 08:29:20;;;;;;;8.60;6.80;;;;;;;35.25;36.02;98531.25;2314779;77;20950;-81
2022/07/01 08:32:22;;;;;;;11.00;7.20;;;;;;;35.50;35.49;98528.45;2314875;77;20997;-80
2022/07/01 08:35:21;;;;;;;6.33;5.72;;;;;;;35.79;35.55;98524.31;2315848;77;21397;-80
2022/07/01 08:38:22;;;;;;;7.42;6.70;;;;;;;35.89;33.31;98525.67;2316459;77;20912;-82
2022/07/01 08:41:22;;;;;;;10.25;5.95;;;;;;;35.65;33.30;98531.08;2316171;77;21291;-83
2022/07/01 08:44:23;;;;;;;46.70;8.95;;;;;;;35.62;33.59;98527.80;2315859;77;20927;-80
2022/07/01 08:47:23;;;;;;;9.80;6.35;;;;;;;35.72;34.24;98530.84;2316067;77;20923;-80
2022/07/01 08:50:24;;;;;;;23.60;7.85;;;;;;;35.99;33.62;98525.98;2316260;77;21232;-81
2022/07/01 08:53:25;;;;;;;8.50;6.08;;;;;;;36.13;32.10;98521.05;2316463;77;20907;-82
2022/07/01 08:56:45;;;;;;;7.17;5.97;;;;;;;36.19;32.43;98523.16;2316647;77;20991;-81
2022/07/01 08:59:43;;;;;;;20.43;7.20;;;;;;;36.19;31.85;98528.59;2315798;77;20920;-80
2022/07/01 09:02:44;;;;;;;13.43;7.17;;;;;;;36.26;31.73;98516.12;2315409;77;20945;-79
2022/07/01 09:05:44;;;;;;;12.13;6.10;;;;;;;36.44;31.99;98519.79;2316482;77;20954;-81
2022/07/01 09:08:45;;;;;;;7.67;5.70;;;;;;;36.66;30.99;98512.55;2315630;77;20963;-80
2022/07/01 09:11:45;;;;;;;14.35;5.97;;;;;;;36.70;31.04;98514.45;2314632;77;21330;-80
2022/07/01 09:14:45;;;;;;;8.80;5.75;;;;;;;36.78;31.21;98517.79;2313648;77;20942;-78
2022/07/01 09:17:46;;;;;;;6.35;5.70;;;;;;;36.80;30.56;98515.27;2313787;77;20954;-80
2022/07/01 09:20:47;;;;;;;22.60;7.25;;;;;;;36.84;30.49;98517.17;2314018;77;21700;-79
2022/07/01 09:23:47;;;;;;;15.93;7.05;;;;;;;36.89;30.13;98509.39;2313395;77;20931;-80
2022/07/01 09:26:47;;;;;;;6.33;5.45;;;;;;;37.05;30.30;98516.34;2314188;77;21419;-80
2022/07/01 09:29:47;;;;;;;9.60;5.47;;;;;;;37.19;30.11;98517.64;2315527;77;21002;-80
2022/07/01 09:32:48;;;;;;;18.37;6.62;;;;;;;37.28;29.78;98516.25;2314788;77;21353;-81
2022/07/01 09:35:52;;;;;;;7.60;5.83;;;;;;;37.49;28.79;98515.03;2314446;77;21591;-80
2022/07/01 09:38:49;;;;;;;8.78;5.00;;;;;;;37.46;28.56;98512.63;2314448;77;20900;-81
2022/07/01 09:41:49;;;;;;;11.40;5.47;;;;;;;37.21;28.01;98515.11;2314445;77;21072;-79
2022/07/01 09:44:53;;;;;;;13.55;5.00;;;;;;;37.41;28.58;98503.58;2314973;77;20908;-81
2022/07/01 09:47:54;;;;;;;6.00;4.12;;;;;;;37.56;26.86;98510.66;2315027;77;20939;-80
2022/07/01 09:50:54;;;;;;;6.10;4.65;;;;;;;37.72;27.71;98503.97;2315597;77;21280;-79
2022/07/01 09:53:56;;;;;;;8.00;4.45;;;;;;;37.86;27.55;98505.23;2313694;77;20983;-79
2022/07/01 09:56:54;;;;;;;17.12;5.17;;;;;;;37.94;26.72;98507.49;2301776;77;20925;-81
2022/07/01 09:59:55;;;;;;;87.78;11.05;;;;;;;37.89;26.06;98511.22;2301654;77;20925;-80
2022/07/01 10:02:55;;;;;;;9.75;4.83;;;;;;;37.70;26.56;98501.92;2301346;77;20957;-79
2022/07/01 10:05:56;;;;;;;9.25;4.60;;;;;;;37.80;26.49;98505.89;2301827;77;21289;-79
2022/07/01 10:08:56;;;;;;;8.38;4.08;;;;;;;37.84;25.81;98502.67;2301656;77;20917;-81
2022/07/01 10:11:56;;;;;;;7.15;3.70;;;;;;;37.99;24.22;98497.47;2301855;77;20929;-82
2022/07/01 10:14:59;;;;;;;4.75;4.15;;;;;;;38.01;24.41;98497.30;2302440;77;20945;-80
2022/07/01 10:17:57;;;;;;;19.20;6.12;;;;;;;37.94;24.49;98492.51;2302007;77;20945;-81
2022/07/01 10:20:57;;;;;;;4.15;3.72;;;;;;;38.01;24.42;98498.16;2302051;77;20921;-81
2022/07/01 10:24:00;;;;;;;7.50;4.00;;;;;;;38.02;23.87;98492.20;2275967;77;20902;-81
2022/07/01 10:27:00;;;;;;;4.15;3.85;;;;;;;38.02;24.85;98490.84;2302686;77;20941;-81
2022/07/01 10:30:01;;;;;;;5.97;4.45;;;;;;;38.18;24.88;98488.23;2301816;77;20909;-82
2022/07/01 10:33:01;;;;;;;5.47;4.20;;;;;;;38.24;24.91;98499.33;2301668;77;21245;-82
2022/07/01 10:36:02;;;;;;;8.20;4.30;;;;;;;38.22;25.02;98496.42;2302331;77;20997;-85
2022/07/01 10:39:10;;;;;;;8.20;4.10;;;;;;;38.13;25.09;98486.45;2302427;77;21270;-80
2022/07/01 10:42:09;;;;;;;5.78;3.95;;;;;;;38.05;25.32;98484.55;2301868;77;20909;-81
2022/07/01 10:45:09;;;;;;;5.58;4.55;;;;;;;38.12;24.75;98477.93;2301625;77;21404;-81
2022/07/01 10:48:09;;;;;;;11.35;4.70;;;;;;;37.97;25.10;98478.21;2301739;77;20941;-80
2022/07/01 10:51:15;;;;;;;7.17;4.30;;;;;;;38.08;25.10;98473.32;2301427;77;20917;-81
2022/07/01 10:54:10;;;;;;;4.53;4.10;;;;;;;38.23;24.00;98474.97;2300347;77;21321;-80
2022/07/01 10:57:10;;;;;;;10.48;4.72;;;;;;;38.15;24.15;98477.16;2283604;78;20910;-80
2022/07/01 11:00:11;;;;;;;4.85;3.98;;;;;;;38.25;24.35;98475.66;2283836;78;20903;-79
2022/07/01 11:03:11;;;;;;;7.00;3.90;;;;;;;38.35;24.49;98469.55;2284054;78;20938;-80
2022/07/01 11:06:12;;;;;;;14.40;4.87;;;;;;;38.35;23.68;98468.69;2283603;78;21302;-81
2022/07/01 11:09:12;;;;;;;5.78;4.80;;;;;;;38.16;24.42;98468.47;2283869;78;20915;-82
2022/07/01 11:12:13;;;;;;;4.47;3.80;;;;;;;38.20;24.29;98460.31;2283836;78;20912;-81
2022/07/01 11:15:13;;;;;;;11.25;3.98;;;;;;;38.29;23.79;98459.82;2283767;78;21345;-80
2022/07/01 11:18:13;;;;;;;6.62;3.98;;;;;;;38.40;23.23;98471.27;2284126;78;20923;-79
2022/07/01 11:21:14;;;;;;;13.40;4.55;;;;;;;38.48;23.37;98459.01;2283706;78;20903;-81
2022/07/01 11:24:14;;;;;;;11.30;4.60;;;;;;;38.62;22.85;98464.86;2283672;78;21334;-82
2022/07/01 11:27:15;;;;;;;8.30;4.50;;;;;;;38.73;22.44;98468.11;2283439;78;20903;-80
2022/07/01 11:30:15;;;;;;;5.70;3.83;;;;;;;38.68;22.74;98462.81;2284043;78;20954;-81
2022/07/01 11:33:15;;;;;;;6.30;3.83;;;;;;;38.66;22.74;98459.41;2282609;78;21303;-79
2022/07/01 11:39:36;;;;;;;9.80;3.47;;;;;;;38.86;22.02;98449.87;2283582;78;20926;-80
2022/07/01 11:42:35;;;;;;;9.03;3.80;;;;;;;38.94;21.77;98455.32;2284467;78;20957;-80
2022/07/01 11:45:36;;;;;;;5.90;3.20;;;;;;;39.03;21.77;98450.23;2283829;78;20907;-80
2022/07/01 11:48:36;;;;;;;8.50;3.70;;;;;;;39.15;21.86;98442.06;2283756;78;20915;-80
2022/07/01 11:51:36;;;;;;;35.35;5.33;;;;;;;39.29;20.88;98437.77;2283814;78;21764;-82
2022/07/01 11:54:37;;;;;;;26.10;5.20;;;;;;;39.53;19.96;98430.58;2282510;77;20982;-79
2022/07/01 11:57:39;;;;;;;112.20;13.38;;;;;;;39.57;19.53;98438.25;2282526;78;20903;-78
2022/07/01 12:00:40;;;;;;;8.18;3.58;;;;;;;39.45;19.89;98432.79;2254626;78;21421;-82
2022/07/01 12:03:40;;;;;;;5.03;3.37;;;;;;;39.35;20.55;98426.16;2282708;78;20926;-82
2022/07/01 12:06:42;;;;;;;5.92;3.85;;;;;;;39.37;20.85;98423.25;2283082;78;20888;-81
2022/07/01 12:09:41;;;;;;;6.23;3.23;;;;;;;39.52;21.05;98423.41;2282890;78;20922;-80
2022/07/01 12:12:41;;;;;;;13.37;3.70;;;;;;;39.44;21.13;98416.06;2283072;78;21614;-79
2022/07/01 12:15:42;;;;;;;4.50;3.27;;;;;;;39.53;21.22;98412.31;2282690;78;20972;-80
2022/07/01 12:18:42;;;;;;;92.87;15.33;;;;;;;39.58;20.70;98412.64;2282802;78;20919;-81
2022/07/01 12:21:42;;;;;;;7.83;4.13;;;;;;;39.60;20.54;98410.58;2282906;78;20915;-81
2022/07/01 12:24:43;;;;;;;3.57;3.27;;;;;;;39.58;21.18;98400.86;2282491;78;20931;-79
2022/07/01 12:27:43;;;;;;;8.80;3.70;;;;;;;39.68;21.15;98402.35;2281178;78;20922;-79
2022/07/01 12:30:44;;;;;;;3.97;3.40;;;;;;;39.70;20.91;98402.17;2281350;78;21347;-80
2022/07/01 12:33:44;;;;;;;6.30;3.40;;;;;;;39.68;20.41;98394.16;2281912;78;21365;-79
2022/07/01 12:36:45;;;;;;;6.70;3.30;;;;;;;39.72;20.04;98388.68;2281334;78;20946;-80
2022/07/01 12:39:45;;;;;;;5.83;3.43;;;;;;;39.74;20.07;98378.94;2282952;78;20926;-80
2022/07/01 12:42:45;;;;;;;4.83;4.30;;;;;;;39.73;19.95;98375.88;2283433;78;20922;-80
2022/07/01 12:45:46;;;;;;;4.17;3.30;;;;;;;39.60;20.31;98372.86;2283047;78;20942;-79
2022/07/01 12:48:46;;;;;;;5.77;3.37;;;;;;;39.33;20.32;98375.48;2283242;78;20955;-79
2022/07/01 12:51:47;;;;;;;10.27;4.40;;;;;;;39.31;20.94;98375.66;2283533;78;21293;-81
2022/07/01 12:54:47;;;;;;;6.13;3.83;;;;;;;39.58;20.70;98376.28;2283774;77;21392;-79
2022/07/01 12:57:48;;;;;;;3.90;3.10;;;;;;;39.72;20.47;98374.17;2283593;78;20919;-80
2022/07/01 13:00:48;;;;;;;3.50;3.20;;;;;;;39.76;20.18;98366.80;2283404;78;21282;-81
2022/07/01 13:03:48;;;;;;;4.93;3.73;;;;;;;39.69;20.71;98373.16;2282916;78;21299;-79
2022/07/01 13:06:49;;;;;;;5.43;3.53;;;;;;;39.70;20.41;98374.34;2283050;78;20891;-79
2022/07/01 13:09:49;;;;;;;6.43;3.17;;;;;;;39.79;19.60;98370.55;2282469;78;20895;-79
2022/07/01 13:12:49;;;;;;;3.43;3.23;;;;;;;39.90;20.18;98382.98;2283174;78;21271;-79
2022/07/01 13:15:50;;;;;;;8.93;3.70;;;;;;;40.16;19.50;98379.11;2283492;78;20982;-78
2022/07/01 13:18:50;;;;;;;3.70;3.13;;;;;;;40.33;19.61;98381.55;2284224;78;20939;-82
2022/07/01 13:21:51;;;;;;;6.50;3.03;;;;;;;40.49;19.17;98372.92;2285211;78;21398;-79
2022/07/01 13:24:51;;;;;;;5.53;3.17;;;;;;;40.45;19.22;98371.58;2284157;78;21283;-79
2022/07/01 13:27:52;;;;;;;8.30;3.67;;;;;;;40.35;18.78;98374.05;2284200;78;20915;-79
2022/07/01 13:30:52;;;;;;;9.40;3.43;;;;;;;40.07;18.71;98365.50;2284195;78;20927;-79
2022/07/01 13:33:52;;;;;;;5.30;3.30;;;;;;;39.82;19.49;98366.61;2284481;78;20939;-79
2022/07/01 13:36:53;;;;;;;11.73;3.40;;;;;;;40.01;19.88;98380.40;2284145;78;21275;-80
2022/07/01 13:39:53;;;;;;;3.97;3.13;;;;;;;40.19;19.35;98379.59;2284278;78;20923;-80
2022/07/01 13:42:54;;;;;;;5.17;3.27;;;;;;;40.13;19.04;98376.22;2284344;78;20926;-79
2022/07/01 13:45:54;;;;;;;6.23;3.40;;;;;;;40.21;18.78;98378.91;2285152;78;20915;-79
2022/07/01 13:48:54;;;;;;;9.37;3.83;;;;;;;40.46;18.69;98369.19;2284673;78;20955;-83
2022/07/01 13:51:55;;;;;;;6.50;3.07;;;;;;;40.57;18.32;98368.75;2285614;78;20926;-79
2022/07/01 13:54:55;;;;;;;8.10;3.20;;;;;;;40.73;19.37;98374.93;2284624;77;20966;-81
2022/07/01 13:57:57;;;;;;;5.70;3.20;;;;;;;40.83;18.77;98376.10;2292868;77;20938;-80
2022/07/01 14:00:56;;;;;;;3.00;2.70;;;;;;;40.69;18.71;98374.12;2290990;78;20908;-80
2022/07/01 14:03:56;;;;;;;6.73;3.13;;;;;;;40.76;18.51;98372.89;2290535;78;20896;-81
2022/07/01 14:06:57;;;;;;;6.53;3.13;;;;;;;40.90;18.49;98377.58;2290146;78;20892;-79
2022/07/01 14:09:57;;;;;;;5.80;3.00;;;;;;;41.01;18.47;98373.02;2290968;78;20956;-80
2022/07/01 14:12:58;;;;;;;4.73;3.23;;;;;;;40.92;18.23;98375.51;2291227;78;20908;-80
2022/07/01 14:15:58;;;;;;;8.97;4.27;;;;;;;40.49;19.25;98371.55;2290247;78;21000;-81